createdAt,value
2023-04-22T00:00:09.255Z,8.7
2023-04-22T00:02:19.296Z,8.7
2023-04-22T00:04:27.124Z,8.7
2023-04-22T00:06:35.168Z,8.6
2023-04-22T00:08:44.257Z,8.6
2023-04-22T00:10:52.030Z,8.6
2023-04-22T00:12:59.850Z,8.6
2023-04-22T00:15:09.716Z,8.6
2023-04-22T00:17:17.932Z,8.5
2023-04-22T00:19:25.849Z,8.5
2023-04-22T00:21:33.639Z,8.5
2023-04-22T00:23:41.313Z,8.5
2023-04-22T00:25:50.538Z,8.5
2023-04-22T00:27:58.227Z,8.5
2023-04-22T00:30:07.458Z,8.5
2023-04-22T00:32:15.242Z,8.5
2023-04-22T00:34:22.927Z,8.5
2023-04-22T00:36:31.296Z,8.4
2023-04-22T00:38:39.017Z,8.4
2023-04-22T00:40:46.702Z,8.4
2023-04-22T00:42:56.522Z,8.3
2023-04-22T00:45:04.689Z,8.3
2023-04-22T00:47:13.244Z,8.3
2023-04-22T00:49:21.384Z,8.2
2023-04-22T00:51:30.277Z,8.2
2023-04-22T00:53:37.954Z,8.1
2023-04-22T00:55:45.708Z,8.1
2023-04-22T00:57:55.716Z,8.1
2023-04-22T01:00:04.792Z,8
2023-04-22T01:02:13.346Z,8
2023-04-22T01:04:22.795Z,7.9
2023-04-22T01:06:31.293Z,7.9
2023-04-22T01:08:39.117Z,7.9
2023-04-22T01:10:47.089Z,7.8
2023-04-22T01:12:56.215Z,7.8
2023-04-22T01:15:04.853Z,7.8
2023-04-22T01:17:14.231Z,7.8
2023-04-22T01:19:21.950Z,7.7
2023-04-22T01:21:33.396Z,7.7
2023-04-22T01:23:42.569Z,7.7
2023-04-22T01:25:50.715Z,7.6
2023-04-22T01:27:58.460Z,7.6
2023-04-22T01:30:07.762Z,7.6
2023-04-22T01:32:15.579Z,7.5
2023-04-22T01:34:23.606Z,7.5
2023-04-22T01:36:32.607Z,7.5
2023-04-22T01:38:42.126Z,7.5
2023-04-22T01:40:50.083Z,7.5
2023-04-22T01:42:58.288Z,7.5
2023-04-22T01:45:07.481Z,7.5
2023-04-22T01:47:15.339Z,7.5
2023-04-22T01:49:23.171Z,7.5
2023-04-22T01:51:31.562Z,7.5
2023-04-22T01:53:39.251Z,7.5
2023-04-22T01:55:48.676Z,7.5
2023-04-22T01:57:58.342Z,7.5
2023-04-22T02:00:08.236Z,7.4
2023-04-22T02:02:16.123Z,7.4
2023-04-22T02:04:24.042Z,7.4
2023-04-22T02:06:32.274Z,7.4
2023-04-22T02:08:40.089Z,7.4
2023-04-22T02:10:49.171Z,7.4
2023-04-22T02:12:56.898Z,7.3
2023-04-22T02:15:05.167Z,7.4
2023-04-22T02:17:13.010Z,7.4
2023-04-22T02:19:20.704Z,7.4
2023-04-22T02:21:30.034Z,7.3
2023-04-22T02:23:38.370Z,7.3
2023-04-22T02:25:51.350Z,7.3
2023-04-22T02:27:59.088Z,7.3
2023-04-22T02:30:11.049Z,7.3
2023-04-22T02:32:18.806Z,7.3
2023-04-22T02:34:26.894Z,7.2
2023-04-22T02:36:34.872Z,7.2
2023-04-22T02:38:42.668Z,7.2
2023-04-22T02:40:51.734Z,7.2
2023-04-22T02:42:59.503Z,7.2
2023-04-22T02:45:08.303Z,7.2
2023-04-22T02:47:16.144Z,7.2
2023-04-22T02:49:23.939Z,7.2
2023-04-22T02:51:32.755Z,7.2
2023-04-22T02:53:40.682Z,7.1
2023-04-22T02:55:48.438Z,7.1
2023-04-22T02:57:57.489Z,7.1
2023-04-22T03:00:06.215Z,7
2023-04-22T03:02:14.039Z,7
2023-04-22T03:04:22.513Z,7
2023-04-22T03:06:30.986Z,7
2023-04-22T03:08:38.755Z,6.9
2023-04-22T03:10:46.540Z,6.9
2023-04-22T03:12:54.440Z,6.9
2023-04-22T03:15:03.723Z,6.9
2023-04-22T03:17:11.499Z,6.9
2023-04-22T03:19:19.240Z,6.8
2023-04-22T03:21:28.381Z,6.8
2023-04-22T03:23:36.344Z,6.8
2023-04-22T03:25:44.128Z,6.8
2023-04-22T03:27:51.920Z,6.8
2023-04-22T03:29:59.676Z,6.8
2023-04-22T03:32:08.814Z,6.8
2023-04-22T03:34:17.366Z,6.7
2023-04-22T03:36:25.218Z,6.7
2023-04-22T03:38:32.977Z,6.7
2023-04-22T03:40:40.758Z,6.6
2023-04-22T03:42:48.597Z,6.6
2023-04-22T03:44:56.726Z,6.6
2023-04-22T03:47:04.547Z,6.6
2023-04-22T03:49:14.450Z,6.6
2023-04-22T03:51:22.161Z,6.7
2023-04-22T03:53:30.587Z,6.7
2023-04-22T03:55:38.387Z,6.7
2023-04-22T03:57:46.227Z,6.7
2023-04-22T03:59:54.006Z,6.7
2023-04-22T04:02:01.758Z,6.7
2023-04-22T04:04:09.796Z,6.7
2023-04-22T04:06:19.058Z,6.7
2023-04-22T04:08:26.968Z,6.7
2023-04-22T04:10:34.867Z,6.7
2023-04-22T04:12:42.624Z,6.7
2023-04-22T04:14:50.393Z,6.7
2023-04-22T04:16:58.550Z,6.8
2023-04-22T04:19:07.218Z,6.8
2023-04-22T04:21:15.025Z,6.8
2023-04-22T04:23:24.262Z,6.9
2023-04-22T04:25:38.809Z,6.9
2023-04-22T04:27:47.441Z,7
2023-04-22T04:29:55.890Z,7.2
2023-04-22T04:32:04.668Z,7.3
2023-04-22T04:34:12.992Z,7.5
2023-04-22T04:36:20.845Z,7.6
2023-04-22T04:38:30.174Z,7.7
2023-04-22T04:40:38.079Z,7.8
2023-04-22T04:42:46.494Z,7.9
2023-04-22T04:44:54.454Z,8
2023-04-22T04:47:02.942Z,8.1
2023-04-22T04:49:12.464Z,8.3
2023-04-22T04:51:20.586Z,8.5
2023-04-22T04:53:29.809Z,8.8
2023-04-22T04:55:38.158Z,9
2023-04-22T04:57:46.746Z,9.3
2023-04-22T04:59:54.644Z,9.6
2023-04-22T05:02:02.758Z,9.8
2023-04-22T05:04:11.442Z,10
2023-04-22T05:06:19.579Z,10.1
2023-04-22T05:08:28.924Z,10
2023-04-22T05:10:36.762Z,9.9
2023-04-22T05:12:46.317Z,10
2023-04-22T05:14:54.628Z,9.9
2023-04-22T05:17:02.441Z,9.8
2023-04-22T05:19:10.216Z,9.8
2023-04-22T05:21:18.293Z,9.8
2023-04-22T05:23:26.458Z,9.8
2023-04-22T05:25:35.723Z,9.8
2023-04-22T05:27:43.768Z,9.8
2023-04-22T05:29:51.722Z,9.9
2023-04-22T05:31:59.605Z,9.9
2023-04-22T05:34:07.407Z,10
2023-04-22T05:36:15.208Z,10
2023-04-22T05:38:22.982Z,10.1
2023-04-22T05:40:30.769Z,10.1
2023-04-22T05:42:40.055Z,10.3
2023-04-22T05:44:47.906Z,10.4
2023-04-22T05:46:55.738Z,10.5
2023-04-22T05:49:03.857Z,10.6
2023-04-22T05:51:11.809Z,10.7
2023-04-22T05:53:19.503Z,10.8
2023-04-22T05:55:27.248Z,10.9
2023-04-22T05:57:35.216Z,11
2023-04-22T05:59:44.382Z,11.1
2023-04-22T06:01:52.237Z,11.2
2023-04-22T06:04:00.504Z,11.2
2023-04-22T06:06:08.683Z,11.3
2023-04-22T06:08:19.517Z,11.4
2023-04-22T06:10:27.478Z,11.4
2023-04-22T06:12:35.541Z,11.5
2023-04-22T06:14:44.704Z,11.6
2023-04-22T06:16:53.431Z,11.6
2023-04-22T06:19:01.276Z,11.7
2023-04-22T06:21:09.133Z,11.9
2023-04-22T06:23:16.921Z,11.9
2023-04-22T06:25:24.726Z,12
2023-04-22T06:27:32.588Z,12.1
2023-04-22T06:29:40.671Z,12.3
2023-04-22T06:31:50.069Z,12.3
2023-04-22T06:33:58.025Z,12.4
2023-04-22T06:36:06.849Z,12.4
2023-04-22T06:38:14.664Z,12.5
2023-04-22T06:40:22.848Z,12.5
2023-04-22T06:42:31.320Z,12.6
2023-04-22T06:44:39.072Z,12.7
2023-04-22T06:46:46.943Z,12.7
2023-04-22T06:48:56.111Z,12.8
2023-04-22T06:51:04.024Z,12.8
2023-04-22T06:53:11.846Z,12.9
2023-04-22T06:55:19.793Z,13
2023-04-22T06:57:27.606Z,13.2
2023-04-22T06:59:35.379Z,13.2
2023-04-22T07:01:43.249Z,13.3
2023-04-22T07:03:51.156Z,13.3
2023-04-22T07:06:00.878Z,13.5
2023-04-22T07:08:08.832Z,13.6
2023-04-22T07:10:16.574Z,13.9
2023-04-22T07:12:25.990Z,13.9
2023-04-22T07:14:34.134Z,14
2023-04-22T07:16:42.001Z,14.1
2023-04-22T07:18:49.986Z,14.1
2023-04-22T07:20:57.780Z,14.1
2023-04-22T07:23:07.251Z,14.3
2023-04-22T07:25:15.341Z,14.5
2023-04-22T07:27:23.725Z,14.7
2023-04-22T07:29:31.782Z,14.8
2023-04-22T07:31:39.826Z,15
2023-04-22T07:33:47.945Z,15.2
2023-04-22T07:35:55.821Z,15.2
2023-04-22T07:38:03.675Z,15.4
2023-04-22T07:40:14.025Z,15.4
2023-04-22T07:42:21.795Z,15.3
2023-04-22T07:44:29.576Z,15.5
2023-04-22T07:46:37.489Z,15.7
2023-04-22T07:48:45.245Z,15.7
2023-04-22T07:50:53.322Z,15.8
2023-04-22T07:53:01.567Z,15.9
2023-04-22T07:55:10.672Z,15.8
2023-04-22T07:57:21.710Z,15.8
2023-04-22T07:59:29.592Z,16
2023-04-22T08:01:37.474Z,16
2023-04-22T08:03:45.522Z,16.1
2023-04-22T08:05:53.560Z,16.2
2023-04-22T08:08:01.346Z,16.4
2023-04-22T08:10:10.628Z,16.4
2023-04-22T08:12:20.141Z,16.6
2023-04-22T08:14:28.269Z,16.7
2023-04-22T08:16:36.091Z,16.7
2023-04-22T08:18:43.966Z,16.8
2023-04-22T08:20:51.788Z,16.9
2023-04-22T08:23:00.473Z,16.9
2023-04-22T08:25:09.703Z,16.9
2023-04-22T08:27:19.172Z,17
2023-04-22T08:29:27.428Z,17.1
2023-04-22T08:31:35.580Z,17.3
2023-04-22T08:33:43.409Z,17.6
2023-04-22T08:35:51.852Z,17.8
2023-04-22T08:38:02.729Z,17.8
2023-04-22T08:40:11.180Z,18
2023-04-22T08:42:21.937Z,18.1
2023-04-22T08:44:30.521Z,18
2023-04-22T08:46:39.399Z,18
2023-04-22T08:48:48.122Z,17.9
2023-04-22T08:50:55.996Z,18
2023-04-22T08:53:03.711Z,18.1
2023-04-22T08:55:11.921Z,18.2
2023-04-22T08:57:21.411Z,18.4
2023-04-22T08:59:29.558Z,18.5
2023-04-22T09:01:39.166Z,18.5
2023-04-22T09:03:50.180Z,18.4
2023-04-22T09:05:58.929Z,18.4
2023-04-22T09:08:07.812Z,18.6
2023-04-22T09:10:15.668Z,18.6
2023-04-22T09:12:25.898Z,18.7
2023-04-22T09:14:35.064Z,18.7
2023-04-22T09:16:47.799Z,19
2023-04-22T09:18:55.683Z,19.1
2023-04-22T09:21:05.268Z,19.1
2023-04-22T09:23:13.999Z,19.1
2023-04-22T09:25:23.255Z,19
2023-04-22T09:27:34.053Z,19
2023-04-22T09:29:49.869Z,19.2
2023-04-22T09:31:57.801Z,19.4
2023-04-22T09:34:06.826Z,19.3
2023-04-22T09:36:14.728Z,19.2
2023-04-22T09:38:22.539Z,19.2
2023-04-22T09:40:31.262Z,19.3
2023-04-22T09:42:52.024Z,19.3
2023-04-22T09:45:01.919Z,19.5
2023-04-22T09:47:12.014Z,19.7
2023-04-22T09:49:21.771Z,20
2023-04-22T09:51:34.501Z,20.2
2023-04-22T09:53:42.294Z,20.1
2023-04-22T09:55:52.111Z,20.1
2023-04-22T09:58:08.047Z,20.2
2023-04-22T10:00:17.310Z,20.4
2023-04-22T10:02:30.161Z,20.5
2023-04-22T10:04:38.791Z,20.6
2023-04-22T10:06:46.594Z,20.5
2023-04-22T10:08:54.544Z,20.5
2023-04-22T10:11:02.305Z,20.4
2023-04-22T10:13:11.448Z,20.6
2023-04-22T10:15:19.894Z,20.6
2023-04-22T10:17:29.512Z,21
2023-04-22T10:19:38.280Z,21.3
2023-04-22T10:21:48.177Z,21.6
2023-04-22T10:23:56.294Z,21.8
2023-04-22T10:26:08.043Z,21.9
2023-04-22T10:28:18.388Z,22
2023-04-22T10:30:30.055Z,22.2
2023-04-22T10:32:37.964Z,22.4
2023-04-22T10:34:47.395Z,22.5
2023-04-22T10:37:00.853Z,22.5
2023-04-22T10:39:19.012Z,22.5
2023-04-22T10:41:30.550Z,22.6
2023-04-22T10:43:48.020Z,22.6
2023-04-22T10:45:55.798Z,22.7
2023-04-22T10:48:05.026Z,22.9
2023-04-22T10:50:19.733Z,23.1
2023-04-22T10:52:31.111Z,23.3
2023-04-22T10:55:03.349Z,23.4
2023-04-22T10:57:14.329Z,23.5
2023-04-22T10:59:23.456Z,23.6
2023-04-22T11:01:31.247Z,23.8
2023-04-22T11:03:44.675Z,23.8
2023-04-22T11:06:15.016Z,23.8
2023-04-22T11:08:23.752Z,24
2023-04-22T11:10:33.643Z,24
2023-04-22T11:12:45.077Z,24.2
2023-04-22T11:14:54.292Z,24.2
2023-04-22T11:17:02.354Z,24.3
2023-04-22T11:19:10.329Z,24.2
2023-04-22T11:21:19.367Z,24.2
2023-04-22T11:23:29.512Z,24.2
2023-04-22T11:25:37.836Z,24.1
2023-04-22T11:27:46.305Z,24.3
2023-04-22T11:30:07.591Z,24.3
2023-04-22T11:32:15.539Z,24.5
2023-04-22T11:34:24.420Z,24.5
2023-04-22T11:36:32.521Z,24.5
2023-04-22T11:38:40.358Z,24.5
2023-04-22T11:40:48.802Z,24.5
2023-04-22T11:42:57.300Z,24.4
2023-04-22T11:45:08.598Z,24.5
2023-04-22T11:47:16.352Z,24.5
2023-04-22T11:49:26.827Z,24.7
2023-04-22T11:51:34.655Z,24.8
2023-04-22T11:53:51.159Z,24.8
2023-04-22T11:55:58.913Z,24.8
2023-04-22T11:58:08.175Z,24.9
2023-04-22T12:00:17.587Z,24.9
2023-04-22T12:02:25.711Z,24.9
2023-04-22T12:04:37.439Z,25
2023-04-22T12:06:47.034Z,24.8
2023-04-22T12:08:56.749Z,24.7
2023-04-22T12:11:05.858Z,24.6
2023-04-22T12:13:20.755Z,24.6
2023-04-22T12:15:38.855Z,24.7
2023-04-22T12:17:46.767Z,24.8
2023-04-22T12:19:57.756Z,24.8
2023-04-22T12:22:05.868Z,25.1
2023-04-22T12:24:15.098Z,25.1
2023-04-22T12:26:26.359Z,25.2
2023-04-22T12:28:36.319Z,25
2023-04-22T12:30:45.771Z,25.1
2023-04-22T12:32:53.562Z,25
2023-04-22T12:35:01.333Z,25.1
2023-04-22T12:37:09.286Z,25
2023-04-22T12:39:17.110Z,25.1
2023-04-22T12:41:24.852Z,25.2
2023-04-22T12:43:35.276Z,25.3
2023-04-22T12:45:43.027Z,25.5
2023-04-22T12:47:53.935Z,25.5
2023-04-22T12:50:06.205Z,25.4
2023-04-22T12:52:14.013Z,25.2
2023-04-22T12:54:23.615Z,25.2
2023-04-22T12:56:31.371Z,25.3
2023-04-22T12:58:39.166Z,25.5
2023-04-22T13:00:47.046Z,25.6
2023-04-22T13:02:56.207Z,25.8
2023-04-22T13:05:04.241Z,25.9
2023-04-22T13:07:12.341Z,25.9
2023-04-22T13:09:20.081Z,25.8
2023-04-22T13:11:27.847Z,25.7
2023-04-22T13:13:35.601Z,25.7
2023-04-22T13:15:43.906Z,25.8
2023-04-22T13:17:51.743Z,25.8
2023-04-22T13:20:00.824Z,26.1
2023-04-22T13:22:08.724Z,26.1
2023-04-22T13:24:16.460Z,26
2023-04-22T13:26:24.418Z,26
2023-04-22T13:28:32.317Z,26
2023-04-22T13:30:40.321Z,26
2023-04-22T13:32:48.183Z,26.1
2023-04-22T13:34:56.028Z,26.2
2023-04-22T13:37:05.216Z,26.1
2023-04-22T13:39:13.381Z,26
2023-04-22T13:41:21.277Z,26.1
2023-04-22T13:43:29.022Z,26.2
2023-04-22T13:45:40.207Z,26.2
2023-04-22T13:47:48.092Z,26
2023-04-22T13:49:55.822Z,25.9
2023-04-22T13:52:05.140Z,25.9
2023-04-22T13:54:12.820Z,25.8
2023-04-22T13:56:20.615Z,25.7
2023-04-22T13:58:28.808Z,25.7
2023-04-22T14:00:36.956Z,25.9
2023-04-22T14:02:45.190Z,26.1
2023-04-22T14:04:53.202Z,26.1
2023-04-22T14:07:01.841Z,26.2
2023-04-22T14:09:11.386Z,26.3
2023-04-22T14:11:19.162Z,26.3
2023-04-22T14:13:27.102Z,26.4
2023-04-22T14:15:35.026Z,26.3
2023-04-22T14:17:42.904Z,26.2
2023-04-22T14:19:50.722Z,26.1
2023-04-22T14:21:58.584Z,26
2023-04-22T14:24:06.642Z,25.8
2023-04-22T14:26:15.874Z,25.7
2023-04-22T14:28:23.719Z,25.5
2023-04-22T14:30:31.795Z,25.4
2023-04-22T14:32:39.716Z,25.3
2023-04-22T14:34:47.858Z,25.4
2023-04-22T14:36:55.717Z,25.5
2023-04-22T14:39:03.600Z,25.6
2023-04-22T14:41:12.990Z,25.6
2023-04-22T14:43:22.268Z,25.5
2023-04-22T14:45:31.667Z,25.7
2023-04-22T14:47:39.490Z,25.7
2023-04-22T14:49:47.455Z,25.8
2023-04-22T14:51:55.398Z,25.9
2023-04-22T14:54:03.424Z,25.9
2023-04-22T14:56:12.044Z,25.9
2023-04-22T14:58:19.938Z,26
2023-04-22T15:00:29.447Z,26
2023-04-22T15:02:37.334Z,26.1
2023-04-22T15:04:45.533Z,25.9
2023-04-22T15:06:57.369Z,25.8
2023-04-22T15:09:05.593Z,25.7
2023-04-22T15:11:13.562Z,25.7
2023-04-22T15:13:21.374Z,25.6
2023-04-22T15:15:30.547Z,25.6
2023-04-22T15:17:38.278Z,25.6
2023-04-22T15:19:46.543Z,25.4
2023-04-22T15:21:54.371Z,25.2
2023-04-22T15:24:04.906Z,25.1
2023-04-22T15:26:13.287Z,24.9
2023-04-22T15:28:21.372Z,24.8
2023-04-22T15:30:30.552Z,24.6
2023-04-22T15:32:38.959Z,24.5
2023-04-22T15:34:46.938Z,24.5
2023-04-22T15:36:54.990Z,24.5
2023-04-22T15:39:03.151Z,24.5
2023-04-22T15:41:11.064Z,24.5
2023-04-22T15:43:18.775Z,24.5
2023-04-22T15:45:26.938Z,24.6
2023-04-22T15:47:37.096Z,24.5
2023-04-22T15:49:45.388Z,24.5
2023-04-22T15:51:54.010Z,24.2
2023-04-22T15:54:01.737Z,24.1
2023-04-22T15:56:10.031Z,24
2023-04-22T15:58:17.835Z,23.9
2023-04-22T16:00:26.115Z,23.9
2023-04-22T16:02:33.924Z,23.7
2023-04-22T16:04:46.281Z,23.6
2023-04-22T16:06:56.936Z,23.5
2023-04-22T16:09:05.231Z,23.4
2023-04-22T16:11:14.714Z,23.3
2023-04-22T16:13:22.621Z,23.2
2023-04-22T16:15:30.405Z,23.2
2023-04-22T16:17:38.647Z,23.1
2023-04-22T16:19:47.878Z,23
2023-04-22T16:21:56.586Z,22.9
2023-04-22T16:24:04.924Z,22.8
2023-04-22T16:26:12.734Z,22.8
2023-04-22T16:28:20.627Z,22.7
2023-04-22T16:30:28.585Z,22.6
2023-04-22T16:32:36.438Z,22.6
2023-04-22T16:34:44.234Z,22.6
2023-04-22T16:36:53.259Z,22.6
2023-04-22T16:39:00.965Z,22.6
2023-04-22T16:41:11.653Z,22.6
2023-04-22T16:43:19.410Z,22.6
2023-04-22T16:45:27.133Z,22.6
2023-04-22T16:47:34.862Z,22.7
2023-04-22T16:49:42.897Z,22.7
2023-04-22T16:51:50.968Z,22.7
2023-04-22T16:53:59.969Z,22.7
2023-04-22T16:56:07.852Z,22.7
2023-04-22T16:58:15.556Z,22.7
2023-04-22T17:00:24.261Z,22.7
2023-04-22T17:02:32.722Z,22.7
2023-04-22T17:04:40.518Z,22.7
2023-04-22T17:06:48.265Z,22.7
2023-04-22T17:08:55.978Z,22.6
2023-04-22T17:11:05.516Z,22.5
2023-04-22T17:13:14.093Z,22.4
2023-04-22T17:15:21.860Z,22.4
2023-04-22T17:17:29.628Z,22.3
2023-04-22T17:19:37.401Z,22.2
2023-04-22T17:21:45.322Z,22.1
2023-04-22T17:23:53.127Z,22
2023-04-22T17:26:00.813Z,21.9
2023-04-22T17:28:11.283Z,21.9
2023-04-22T17:30:19.414Z,21.8
2023-04-22T17:32:27.164Z,21.8
2023-04-22T17:34:34.910Z,21.7
2023-04-22T17:36:42.695Z,21.6
2023-04-22T17:38:50.403Z,21.6
2023-04-22T17:40:58.376Z,21.5
2023-04-22T17:43:06.141Z,21.4
2023-04-22T17:45:15.498Z,21.3
2023-04-22T17:47:23.988Z,21.2
2023-04-22T17:49:31.727Z,21.1
2023-04-22T17:51:39.531Z,21.1
2023-04-22T17:53:47.263Z,21
2023-04-22T17:55:55.079Z,21
2023-04-22T17:58:03.845Z,20.9
2023-04-22T18:00:14.331Z,20.8
2023-04-22T18:02:24.840Z,20.8
2023-04-22T18:04:32.680Z,20.7
2023-04-22T18:06:40.387Z,20.7
2023-04-22T18:08:48.091Z,20.5
2023-04-22T18:10:56.089Z,20.5
2023-04-22T18:13:04.302Z,20.4
2023-04-22T18:15:12.241Z,20.4
2023-04-22T18:17:20.228Z,20.3
2023-04-22T18:19:29.488Z,20.2
2023-04-22T18:21:39.692Z,20.1
2023-04-22T18:23:52.172Z,20
2023-04-22T18:25:59.832Z,20
2023-04-22T18:28:07.697Z,19.9
2023-04-22T18:30:15.801Z,19.9
2023-04-22T18:32:23.599Z,19.8
2023-04-22T18:34:32.720Z,19.8
2023-04-22T18:36:41.340Z,19.7
2023-04-22T18:38:49.080Z,19.7
2023-04-22T18:40:57.060Z,19.6
2023-04-22T18:43:04.816Z,19.6
2023-04-22T18:45:13.113Z,19.5
2023-04-22T18:47:20.833Z,19.4
2023-04-22T18:49:28.809Z,19.4
2023-04-22T18:51:39.930Z,19.3
2023-04-22T18:53:50.608Z,19.3
2023-04-22T18:55:58.559Z,19.3
2023-04-22T18:58:06.344Z,19.2
2023-04-22T19:00:15.317Z,19.2
2023-04-22T19:02:23.191Z,19.2
2023-04-22T19:04:31.093Z,19.2
2023-04-22T19:06:40.574Z,19.1
2023-04-22T19:08:53.104Z,19.1
2023-04-22T19:11:01.126Z,19.1
2023-04-22T19:13:18.756Z,19.1
2023-04-22T19:15:32.235Z,19.1
2023-04-22T19:17:40.449Z,19
2023-04-22T19:19:48.317Z,19
2023-04-22T19:21:57.361Z,19
2023-04-22T19:24:05.422Z,19
2023-04-22T19:26:13.232Z,19
2023-04-22T19:28:21.234Z,18.9
2023-04-22T19:30:29.145Z,18.9
2023-04-22T19:32:36.869Z,18.9
2023-04-22T19:34:45.070Z,18.9
2023-04-22T19:36:53.794Z,18.9
2023-04-22T19:39:02.987Z,18.8
2023-04-22T19:41:11.564Z,18.8
2023-04-22T19:43:19.415Z,18.8
2023-04-22T19:45:27.682Z,18.7
2023-04-22T19:47:35.811Z,18.7
2023-04-22T19:49:44.047Z,18.7
2023-04-22T19:51:53.268Z,18.7
2023-04-22T19:54:02.786Z,18.6
2023-04-22T19:56:10.679Z,18.6
2023-04-22T19:58:19.260Z,18.6
2023-04-22T20:00:27.522Z,18.6
2023-04-22T20:02:36.052Z,18.5
2023-04-22T20:04:44.285Z,18.5
2023-04-22T20:06:53.154Z,18.5
2023-04-22T20:09:06.194Z,18.4
2023-04-22T20:11:14.081Z,18.4
2023-04-22T20:13:22.681Z,18.4
2023-04-22T20:15:31.026Z,18.4
2023-04-22T20:17:39.322Z,18.3
2023-04-22T20:19:49.503Z,18.3
2023-04-22T20:21:58.631Z,18.3
2023-04-22T20:24:08.845Z,18.3
2023-04-22T20:26:19.603Z,18.2
2023-04-22T20:28:38.212Z,18.2
2023-04-22T20:30:46.622Z,18.2
2023-04-22T20:32:54.607Z,18.1
2023-04-22T20:35:02.780Z,18.1
2023-04-22T20:37:12.861Z,18.1
2023-04-22T20:39:24.807Z,18.1
2023-04-22T20:41:37.195Z,18.1
2023-04-22T20:43:46.046Z,18
2023-04-22T20:45:53.972Z,18
2023-04-22T20:48:01.774Z,18
2023-04-22T20:50:10.265Z,18
2023-04-22T20:52:19.277Z,18
2023-04-22T20:54:29.434Z,18
2023-04-22T20:56:37.302Z,18
2023-04-22T20:58:45.105Z,18
2023-04-22T21:00:52.903Z,18
2023-04-22T21:03:01.431Z,18
2023-04-22T21:05:11.943Z,18
2023-04-22T21:07:21.216Z,18
2023-04-22T21:09:30.529Z,18
2023-04-22T21:11:38.716Z,18
2023-04-22T21:13:46.734Z,18
2023-04-22T21:16:00.561Z,18
2023-04-22T21:18:09.402Z,18
2023-04-22T21:20:17.455Z,17.9
2023-04-22T21:22:25.553Z,17.8
2023-04-22T21:24:35.779Z,17.8
2023-04-22T21:26:45.347Z,17.8
2023-04-22T21:28:53.695Z,17.8
2023-04-22T21:31:02.101Z,17.8
2023-04-22T21:33:09.921Z,17.8
2023-04-22T21:35:17.855Z,17.8
2023-04-22T21:37:25.844Z,17.8
2023-04-22T21:39:34.946Z,17.8
2023-04-22T21:41:42.818Z,17.8
2023-04-22T21:43:50.628Z,17.8
2023-04-22T21:45:58.436Z,17.7
2023-04-22T21:48:06.518Z,17.7
2023-04-22T21:50:14.281Z,17.7
2023-04-22T21:52:25.010Z,17.6
2023-04-22T21:54:34.041Z,17.6
2023-04-22T21:56:42.380Z,17.6
2023-04-22T21:58:50.147Z,17.5
2023-04-22T22:00:58.338Z,17.5
2023-04-22T22:03:06.783Z,17.5
2023-04-22T22:05:16.058Z,17.4
2023-04-22T22:07:23.795Z,17.4
2023-04-22T22:09:34.367Z,17.4
2023-04-22T22:11:43.768Z,17.3
2023-04-22T22:13:51.799Z,17.3
2023-04-22T22:16:00.030Z,17.3
2023-04-22T22:18:09.504Z,17.2
2023-04-22T22:20:20.128Z,17.1
2023-04-22T22:22:28.053Z,17.1
2023-04-22T22:24:35.744Z,17
2023-04-22T22:26:46.048Z,17
2023-04-22T22:29:16.104Z,17
2023-04-22T22:31:29.329Z,16.9
2023-04-22T22:33:37.457Z,16.9
2023-04-22T22:35:48.717Z,16.8
2023-04-22T22:37:56.624Z,16.8
2023-04-22T22:40:05.382Z,16.8
2023-04-22T22:42:14.874Z,16.8
2023-04-22T22:44:24.613Z,16.8
2023-04-22T22:46:32.395Z,16.8
2023-04-22T22:48:40.613Z,16.8
2023-04-22T22:50:48.900Z,16.8
2023-04-22T22:52:56.762Z,16.7
2023-04-22T22:55:05.321Z,16.7
2023-04-22T22:57:14.684Z,16.7
2023-04-22T22:59:22.423Z,16.7
2023-04-22T23:01:31.139Z,16.7
2023-04-22T23:03:44.796Z,16.6
2023-04-22T23:05:52.677Z,16.6
2023-04-22T23:08:00.478Z,16.6
2023-04-22T23:10:09.737Z,16.5
2023-04-22T23:12:18.824Z,16.5
2023-04-22T23:14:28.003Z,16.4
2023-04-22T23:16:35.953Z,16.4
2023-04-22T23:18:45.046Z,16.4
2023-04-22T23:20:53.409Z,16.4
2023-04-22T23:23:02.479Z,16.4
2023-04-22T23:25:11.983Z,16.4
2023-04-22T23:27:21.832Z,16.4
2023-04-22T23:29:30.734Z,16.4
2023-04-22T23:31:40.643Z,16.4
2023-04-22T23:33:50.961Z,16.4
2023-04-22T23:36:00.361Z,16.4
2023-04-22T23:38:09.240Z,16.4
2023-04-22T23:40:19.274Z,16.4
2023-04-22T23:42:28.322Z,16.4
2023-04-22T23:44:35.994Z,16.4
2023-04-22T23:46:44.120Z,16.4
2023-04-22T23:48:52.174Z,16.3
2023-04-22T23:50:59.862Z,16.3
2023-04-22T23:53:07.726Z,16.3
2023-04-22T23:55:16.805Z,16.3
2023-04-22T23:57:24.914Z,16.3
2023-04-22T23:59:34.790Z,16.3
